Terminal Aerodrome Forecast
Issued by NWS

Home | Current Version | Previous Version | Text Only | Print | Product List | Glossary On
Versions: 1 2 3 4 5 6 7 8 9 10 11 12 13 14 15 16 17
000
FTUS45 KTFX 082126 AAA
TAFGTF
TAF AMD
KGTF 082126Z 0821/0918 VRB03KT P6SM BKN019 OVC060
     FM090100 09006KT P6SM VCSH SCT020 OVC040 PROB30 0906/0912 1SM
      -SN BKN015
     FM091200 VRB04KT 2SM -SN BKN010 OVC020=

USA.gov is the U.S. government's official web portal to all federal, state and local government web resources and services.